createdAt,value
2022-10-28T00:02:19.942Z,58.03
2022-10-28T00:07:13.497Z,64.63
2022-10-28T00:12:07.452Z,64.78
2022-10-28T00:17:01.453Z,69.35
2022-10-28T00:21:54.431Z,67.38
2022-10-28T00:26:48.699Z,61.15
2022-10-28T00:31:42.410Z,68.95
2022-10-28T00:36:42.263Z,74.72
2022-10-28T00:41:38.091Z,67.82
2022-10-28T00:46:57.149Z,63.75
2022-10-28T00:52:01.464Z,62.88
2022-10-28T00:56:58.302Z,60.50
2022-10-28T01:01:52.388Z,61.38
2022-10-28T01:06:46.451Z,70.10
2022-10-28T01:11:59.965Z,67.40
2022-10-28T01:17:09.780Z,73.38
2022-10-28T01:22:18.651Z,62.13
2022-10-28T01:27:22.842Z,70.28
2022-10-28T01:32:37.815Z,72.43
2022-10-28T01:37:37.844Z,71.80
2022-10-28T01:42:59.637Z,67.55
2022-10-28T01:48:03.904Z,69.10
2022-10-28T01:53:00.221Z,69.45
2022-10-28T01:57:54.961Z,67.32
2022-10-28T02:02:49.881Z,68.47
2022-10-28T02:07:43.640Z,71.80
2022-10-28T02:12:38.288Z,69.13
2022-10-28T02:17:38.355Z,65.28
2022-10-28T02:22:38.968Z,60.42
2022-10-28T02:27:34.005Z,63.28
2022-10-28T02:32:47.783Z,67.38
2022-10-28T02:38:01.612Z,73.82
2022-10-28T02:43:42.101Z,69.65
2022-10-28T02:48:42.101Z,70.72
2022-10-28T02:53:52.567Z,65.88
2022-10-28T02:58:45.983Z,67.20
2022-10-28T03:04:18.565Z,63.92
2022-10-28T03:09:52.165Z,72.20
2022-10-28T03:15:25.175Z,55.88
2022-10-28T03:20:18.707Z,60.23
2022-10-28T03:25:14.182Z,58.83
2022-10-28T03:30:10.487Z,59.05
2022-10-28T03:35:04.949Z,64.43
2022-10-28T03:40:01.591Z,59.15
2022-10-28T03:44:55.573Z,58.00
2022-10-28T03:49:49.492Z,59.80
2022-10-28T03:54:43.317Z,61.05
2022-10-28T03:59:36.201Z,60.03
2022-10-28T04:04:30.782Z,54.03
2022-10-28T04:09:24.741Z,58.15
2022-10-28T04:14:21.869Z,57.03
2022-10-28T04:19:14.869Z,63.53
2022-10-28T04:24:08.682Z,63.67
2022-10-28T04:29:02.816Z,61.28
2022-10-28T04:33:57.146Z,65.05
2022-10-28T04:38:52.579Z,63.65
2022-10-28T04:43:46.422Z,66.95
2022-10-28T04:48:40.216Z,63.03
2022-10-28T04:53:33.590Z,69.18
2022-10-28T04:58:28.708Z,66.63
2022-10-28T05:03:22.168Z,68.85
2022-10-28T05:08:15.771Z,61.72
2022-10-28T05:13:09.057Z,58.60
2022-10-28T05:18:03.345Z,63.88
2022-10-28T05:22:57.346Z,56.72
2022-10-28T05:27:51.706Z,64.88
2022-10-28T05:32:45.773Z,56.55
2022-10-28T05:37:40.854Z,58.85
2022-10-28T05:42:34.024Z,59.97
2022-10-28T05:47:27.676Z,52.20
2022-10-28T05:57:14.932Z,60.38
2022-10-28T06:02:15.956Z,60.03
2022-10-28T06:07:09.727Z,65.65
2022-10-28T06:12:02.241Z,67.72
2022-10-28T06:16:55.893Z,58.40
2022-10-28T06:21:50.180Z,55.40
2022-10-28T06:26:44.668Z,59.33
2022-10-28T06:31:44.253Z,48.50
2022-10-28T06:36:38.198Z,56.70
2022-10-28T06:41:32.739Z,56.45
2022-10-28T06:46:26.644Z,57.53
2022-10-28T06:51:22.025Z,57.22
2022-10-28T06:56:16.160Z,57.92
2022-10-28T07:06:01.854Z,52.95
2022-10-28T07:10:56.736Z,59.45
2022-10-28T07:15:57.194Z,75.05
2022-10-28T07:20:50.721Z,59.30
2022-10-28T07:25:49.145Z,61.83
2022-10-28T07:30:43.680Z,58.35
2022-10-28T07:35:36.882Z,61.95
2022-10-28T07:40:29.630Z,66.55
2022-10-28T07:50:16.647Z,53.50
2022-10-28T07:55:10.220Z,58.10
2022-10-28T08:00:06.005Z,69.57
2022-10-28T08:05:08.783Z,71.05
2022-10-28T08:10:06.559Z,66.05
2022-10-28T08:15:00.714Z,57.60
2022-10-28T08:19:57.164Z,63.50
2022-10-28T08:24:51.761Z,66.32
2022-10-28T08:29:46.177Z,72.88
2022-10-28T08:34:43.953Z,67.40
2022-10-28T08:39:37.858Z,68.82
2022-10-28T08:44:57.855Z,72.40
2022-10-28T08:49:58.020Z,62.63
2022-10-28T08:55:07.270Z,58.65
2022-10-28T09:00:08.041Z,56.25
2022-10-28T09:05:22.514Z,48.78
2022-10-28T09:10:17.069Z,55.05
2022-10-28T09:15:36.174Z,57.22
2022-10-28T09:20:29.668Z,55.85
2022-10-28T09:25:26.662Z,47.78
2022-10-28T09:30:42.817Z,55.78
2022-10-28T09:35:43.692Z,47.35
2022-10-28T09:40:39.363Z,68.13
2022-10-28T09:45:33.758Z,59.92
2022-10-28T09:50:31.645Z,64.32
2022-10-28T09:55:29.566Z,71.88
2022-10-28T10:00:23.526Z,62.85
2022-10-28T10:05:19.906Z,65.60
2022-10-28T10:10:48.813Z,74.05
2022-10-28T10:15:54.851Z,68.35
2022-10-28T10:21:07.926Z,68.25
2022-10-28T10:26:06.871Z,74.80
2022-10-28T10:31:24.113Z,66.63
2022-10-28T10:36:18.206Z,70.57
2022-10-28T10:41:11.458Z,65.35
2022-10-28T10:46:08.451Z,67.03
2022-10-28T10:51:13.291Z,67.57
2022-10-28T10:56:30.035Z,66.75
2022-10-28T11:01:26.185Z,59.42
2022-10-28T11:06:28.309Z,66.97
2022-10-28T11:11:23.008Z,63.30
2022-10-28T11:16:29.665Z,64.93
2022-10-28T11:21:48.021Z,67.57
2022-10-28T11:27:03.147Z,50.85
2022-10-28T11:32:21.994Z,65.32
2022-10-28T11:37:53.250Z,71.38
2022-10-28T11:42:52.723Z,72.43
2022-10-28T11:47:46.563Z,67.32
2022-10-28T11:53:01.522Z,53.95
2022-10-28T11:58:30.245Z,61.88
2022-10-28T12:03:45.511Z,57.15
2022-10-28T12:08:56.610Z,54.85
2022-10-28T12:14:31.347Z,47.70
2022-10-28T12:19:34.757Z,52.85
2022-10-28T12:24:32.363Z,58.42
2022-10-28T12:29:37.495Z,53.17
2022-10-28T12:39:56.894Z,60.22
2022-10-28T12:44:53.676Z,51.55
2022-10-28T12:50:14.093Z,50.03
2022-10-28T13:00:19.237Z,47.97
2022-10-28T13:05:21.419Z,47.13
2022-10-28T13:10:34.368Z,47.03
2022-10-28T13:16:08.687Z,44.00
2022-10-28T13:21:35.917Z,49.97
2022-10-28T13:26:35.413Z,48.13
2022-10-28T13:31:58.017Z,51.42
2022-10-28T13:37:31.715Z,46.70
2022-10-28T13:42:29.283Z,48.50
2022-10-28T13:47:30.668Z,50.13
2022-10-28T13:52:23.731Z,48.03
2022-10-28T13:57:29.986Z,46.33
2022-10-28T14:02:35.209Z,54.47
2022-10-28T14:07:53.673Z,47.42
2022-10-28T14:12:53.809Z,51.53
2022-10-28T14:23:36.962Z,58.30
2022-10-28T14:28:29.746Z,53.55
2022-10-28T14:33:24.424Z,50.83
2022-10-28T14:38:28.778Z,50.25
2022-10-28T14:43:29.501Z,54.65
2022-10-28T14:48:44.977Z,50.17
2022-10-28T14:53:38.815Z,47.97
2022-10-28T14:58:51.590Z,43.97
2022-10-28T15:04:09.613Z,56.25
2022-10-28T15:09:09.023Z,47.05
2022-10-28T15:14:24.776Z,58.38
2022-10-28T15:19:23.838Z,55.97
2022-10-28T15:24:18.304Z,62.72
2022-10-28T15:29:12.874Z,63.53
2022-10-28T15:34:19.833Z,60.55
2022-10-28T15:39:17.422Z,64.93
2022-10-28T15:44:44.880Z,65.25
2022-10-28T15:49:41.775Z,62.88
2022-10-28T15:54:36.545Z,63.47
2022-10-28T15:59:30.319Z,68.72
2022-10-28T16:04:24.032Z,67.80
2022-10-28T16:09:26.946Z,71.85
2022-10-28T16:14:45.345Z,79.55
2022-10-28T16:19:41.402Z,61.28
2022-10-28T16:24:39.570Z,66.13
2022-10-28T16:29:33.599Z,66.40
2022-10-28T16:34:27.712Z,75.88
2022-10-28T16:39:22.078Z,68.40
2022-10-28T16:44:18.606Z,71.80
2022-10-28T16:49:12.366Z,68.43
2022-10-28T16:54:06.158Z,61.58
2022-10-28T16:59:00.455Z,64.53
2022-10-28T17:03:54.431Z,67.40
2022-10-28T17:09:04.149Z,61.10
2022-10-28T17:13:58.272Z,65.70
2022-10-28T17:18:57.724Z,69.35
2022-10-28T17:24:00.342Z,72.97
2022-10-28T17:29:04.605Z,70.38
2022-10-28T17:34:09.129Z,69.65
2022-10-28T17:39:09.243Z,67.97
2022-10-28T17:44:13.348Z,67.88
2022-10-28T17:49:17.055Z,65.65
2022-10-28T17:54:20.336Z,66.25
2022-10-28T17:59:25.100Z,64.30
2022-10-28T18:04:28.218Z,70.80
2022-10-28T18:09:30.633Z,72.47
2022-10-28T18:14:30.889Z,75.72
2022-10-28T18:19:35.842Z,76.85
2022-10-28T18:24:35.676Z,73.75
2022-10-28T18:29:39.229Z,77.60
2022-10-28T18:34:34.343Z,74.60
2022-10-28T18:39:27.902Z,79.72
2022-10-28T18:44:24.676Z,74.97
2022-10-28T18:49:19.331Z,71.00
2022-10-28T18:54:13.654Z,72.13
2022-10-28T18:59:09.254Z,72.47
2022-10-28T19:04:05.537Z,78.68
2022-10-28T19:09:00.066Z,72.20
2022-10-28T19:13:54.928Z,72.35
2022-10-28T19:18:50.451Z,73.10
2022-10-28T19:23:45.250Z,74.00
2022-10-28T19:28:40.516Z,71.18
2022-10-28T19:33:33.902Z,69.65
2022-10-28T19:38:31.265Z,66.43
2022-10-28T19:43:24.617Z,74.78
2022-10-28T19:48:20.041Z,72.25
2022-10-28T19:53:14.911Z,68.40
2022-10-28T19:58:09.717Z,69.95
2022-10-28T20:03:02.736Z,70.00
2022-10-28T20:07:57.780Z,68.68
2022-10-28T20:12:52.185Z,66.00
2022-10-28T20:17:46.324Z,66.85
2022-10-28T20:27:35.387Z,75.90
2022-10-28T20:32:29.405Z,75.78
2022-10-28T20:37:23.357Z,72.78
2022-10-28T20:42:17.682Z,75.25
2022-10-28T20:47:11.972Z,68.57
2022-10-28T20:52:06.877Z,70.90
2022-10-28T20:57:00.608Z,69.70
2022-10-28T21:01:55.121Z,71.38
2022-10-28T21:06:49.347Z,70.43
2022-10-28T21:11:45.812Z,71.40
2022-10-28T21:16:39.615Z,74.10
2022-10-28T21:21:34.085Z,72.30
2022-10-28T21:26:28.460Z,69.70
2022-10-28T21:31:21.908Z,70.55
2022-10-28T21:36:18.243Z,75.75
2022-10-28T21:41:19.269Z,74.97
2022-10-28T21:46:13.963Z,78.15
2022-10-28T21:51:14.369Z,80.18
2022-10-28T21:56:35.714Z,78.90
2022-10-28T22:01:29.683Z,75.43
2022-10-28T22:06:23.099Z,70.57
2022-10-28T22:11:20.068Z,65.07
2022-10-28T22:16:17.831Z,72.85
2022-10-28T22:21:12.556Z,70.63
2022-10-28T22:26:09.033Z,70.78
2022-10-28T22:31:03.974Z,70.82
2022-10-28T22:36:18.179Z,74.35
2022-10-28T22:41:25.890Z,69.32
2022-10-28T22:46:19.487Z,75.78
2022-10-28T22:51:13.062Z,70.75
2022-10-28T22:56:07.881Z,64.90
2022-10-28T23:01:16.952Z,62.67
2022-10-28T23:06:11.971Z,54.05
2022-10-28T23:11:05.748Z,57.00
2022-10-28T23:16:09.859Z,50.33
2022-10-28T23:21:13.951Z,46.15
2022-10-28T23:26:09.592Z,51.63
2022-10-28T23:31:04.101Z,49.22
2022-10-28T23:35:57.984Z,50.15
2022-10-28T23:41:02.654Z,53.90
2022-10-28T23:45:57.513Z,47.92
2022-10-28T23:50:51.976Z,48.10
2022-10-28T23:55:46.758Z,39.67
